createdAt,value
2022-10-18T00:02:12.459Z,81.25
2022-10-18T00:05:14.377Z,81.73
2022-10-18T00:08:17.811Z,80.94
2022-10-18T00:11:20.012Z,80.52
2022-10-18T00:14:22.167Z,80.35
2022-10-18T00:17:28.393Z,80.48
2022-10-18T00:20:30.590Z,80.83
2022-10-18T00:23:33.713Z,81.42
2022-10-18T00:26:35.887Z,80.19
2022-10-18T00:29:38.216Z,79.88
2022-10-18T00:32:41.242Z,80.17
2022-10-18T00:35:43.201Z,80.06
2022-10-18T00:38:45.885Z,81.28
2022-10-18T00:41:48.402Z,82.02
2022-10-18T00:44:50.503Z,81.90
2022-10-18T00:47:59.214Z,82.19
2022-10-18T00:51:01.267Z,81.65
2022-10-18T00:54:02.944Z,83.23
2022-10-18T00:57:06.273Z,82.45
2022-10-18T01:00:10.037Z,82.60
2022-10-18T01:03:12.040Z,82.35
2022-10-18T01:06:13.768Z,82.46
2022-10-18T01:09:30.721Z,81.94
2022-10-18T01:12:54.320Z,81.24
2022-10-18T01:16:04.622Z,82.40
2022-10-18T01:19:38.569Z,83.24
2022-10-18T01:22:45.979Z,83.52
2022-10-18T01:25:55.934Z,82.83
2022-10-18T01:28:57.740Z,82.94
2022-10-18T01:32:00.264Z,82.87
2022-10-18T01:35:14.419Z,83.37
2022-10-18T01:38:17.991Z,83.03
2022-10-18T01:41:22.795Z,82.97
2022-10-18T01:44:26.388Z,82.15
2022-10-18T01:47:28.586Z,81.79
2022-10-18T01:50:32.686Z,83.39
2022-10-18T01:53:35.408Z,83.93
2022-10-18T01:56:53.613Z,82.54
2022-10-18T02:00:05.666Z,82.61
2022-10-18T02:03:27.127Z,82.46
2022-10-18T02:06:36.368Z,82.59
2022-10-18T02:09:42.790Z,83.40
2022-10-18T02:12:45.129Z,83.05
2022-10-18T02:15:50.092Z,82.93
2022-10-18T02:18:59.612Z,84.54
2022-10-18T02:22:02.125Z,84.03
2022-10-18T02:25:08.307Z,83.60
2022-10-18T02:28:10.309Z,84.12
2022-10-18T02:31:18.821Z,83.89
2022-10-18T02:34:26.576Z,83.65
2022-10-18T02:37:33.384Z,82.62
2022-10-18T02:40:35.173Z,84.46
2022-10-18T02:43:37.165Z,84.37
2022-10-18T02:46:39.829Z,84.92
2022-10-18T02:49:41.664Z,85.02
2022-10-18T02:52:43.525Z,84.89
2022-10-18T02:55:45.370Z,84.82
2022-10-18T02:58:47.163Z,85.87
2022-10-18T03:01:49.310Z,84.37
2022-10-18T03:04:51.210Z,84.20
2022-10-18T03:07:53.079Z,83.90
2022-10-18T03:10:54.896Z,83.87
2022-10-18T03:13:56.695Z,83.53
2022-10-18T03:16:58.448Z,83.73
2022-10-18T03:20:00.231Z,83.68
2022-10-18T03:23:01.951Z,83.28
2022-10-18T03:26:04.321Z,82.98
2022-10-18T03:29:06.438Z,83.19
2022-10-18T03:32:08.243Z,82.63
2022-10-18T03:35:10.350Z,83.34
2022-10-18T03:38:12.080Z,84.15
2022-10-18T03:41:13.801Z,84.04
2022-10-18T03:44:15.559Z,84.23
2022-10-18T03:47:17.285Z,83.53
2022-10-18T03:50:18.994Z,83.50
2022-10-18T03:53:20.709Z,83.39
2022-10-18T03:56:22.405Z,83.83
2022-10-18T03:59:24.463Z,86.22
2022-10-18T04:02:26.287Z,86.94
2022-10-18T04:05:31.008Z,86.05
2022-10-18T04:08:32.788Z,85.80
2022-10-18T04:11:34.609Z,83.60
2022-10-18T04:14:36.359Z,83.04
2022-10-18T04:17:38.226Z,83.22
2022-10-18T04:20:39.976Z,84.11
2022-10-18T04:23:42.194Z,84.10
2022-10-18T04:26:43.966Z,85.11
2022-10-18T04:29:45.805Z,85.43
2022-10-18T04:32:47.587Z,85.34
2022-10-18T04:35:51.600Z,84.49
2022-10-18T04:38:53.309Z,84.65
2022-10-18T04:41:55.043Z,85.81
2022-10-18T04:44:56.844Z,85.87
2022-10-18T04:47:58.628Z,86.04
2022-10-18T04:51:00.469Z,85.92
2022-10-18T04:54:02.273Z,85.04
2022-10-18T04:57:04.273Z,85.63
2022-10-18T05:00:06.769Z,85.22
2022-10-18T05:03:09.416Z,84.60
2022-10-18T05:06:11.461Z,84.24
2022-10-18T05:09:13.294Z,84.44
2022-10-18T05:12:15.174Z,84.12
2022-10-18T05:15:17.000Z,85.85
2022-10-18T05:18:18.787Z,85.59
2022-10-18T05:21:20.785Z,85.86
2022-10-18T05:24:25.433Z,85.15
2022-10-18T05:27:29.906Z,85.86
2022-10-18T05:30:37.983Z,86.37
2022-10-18T05:33:40.011Z,85.89
2022-10-18T05:36:44.745Z,86.23
2022-10-18T05:39:46.663Z,85.98
2022-10-18T05:42:51.907Z,85.25
2022-10-18T05:45:53.557Z,85.12
2022-10-18T05:48:55.417Z,84.75
2022-10-18T05:51:57.246Z,84.72
2022-10-18T05:54:59.022Z,85.23
2022-10-18T05:58:00.875Z,85.67
2022-10-18T06:01:03.131Z,85.21
2022-10-18T06:04:05.585Z,84.97
2022-10-18T06:07:11.296Z,84.23
2022-10-18T06:10:13.301Z,84.68
2022-10-18T06:13:15.050Z,83.77
2022-10-18T06:16:19.618Z,82.61
2022-10-18T06:19:21.725Z,82.14
2022-10-18T06:22:23.535Z,83.17
2022-10-18T06:25:25.301Z,83.32
2022-10-18T06:28:28.022Z,83.63
2022-10-18T06:31:30.007Z,84.08
2022-10-18T06:34:32.277Z,82.57
2022-10-18T06:37:35.816Z,84.18
2022-10-18T06:40:38.406Z,82.94
2022-10-18T06:43:40.272Z,83.84
2022-10-18T06:46:42.356Z,82.09
2022-10-18T06:49:44.063Z,81.59
2022-10-18T06:52:46.048Z,80.52
2022-10-18T06:55:47.802Z,81.25
2022-10-18T06:58:49.643Z,80.50
2022-10-18T07:01:51.441Z,81.65
2022-10-18T07:04:53.509Z,81.32
2022-10-18T07:07:56.482Z,79.79
2022-10-18T07:10:58.465Z,78.51
2022-10-18T07:14:03.525Z,78.66
2022-10-18T07:17:06.038Z,79.45
2022-10-18T07:20:08.229Z,78.83
2022-10-18T07:23:12.120Z,79.01
2022-10-18T07:26:16.951Z,76.75
2022-10-18T07:29:18.854Z,75.13
2022-10-18T07:32:21.474Z,73.53
2022-10-18T07:35:23.330Z,71.92
2022-10-18T07:38:26.067Z,73.04
2022-10-18T07:41:35.358Z,72.64
2022-10-18T07:44:37.586Z,74.49
2022-10-18T07:47:40.115Z,73.77
2022-10-18T07:50:43.046Z,72.69
2022-10-18T07:53:45.571Z,73.87
2022-10-18T07:56:47.795Z,72.41
2022-10-18T07:59:56.298Z,71.77
2022-10-18T08:02:59.704Z,71.06
2022-10-18T08:06:01.652Z,70.84
2022-10-18T08:09:04.887Z,70.43
2022-10-18T08:12:07.055Z,70.04
2022-10-18T08:15:09.368Z,69.52
2022-10-18T08:18:12.072Z,69.72
2022-10-18T08:21:15.768Z,69.24
2022-10-18T08:24:18.091Z,69.53
2022-10-18T08:27:20.810Z,69.49
2022-10-18T08:30:23.873Z,69.64
2022-10-18T08:33:26.066Z,69.13
2022-10-18T08:36:27.893Z,68.01
2022-10-18T08:39:30.683Z,68.42
2022-10-18T08:42:57.723Z,66.57
2022-10-18T08:46:00.089Z,67.09
2022-10-18T08:49:02.724Z,66.79
2022-10-18T08:52:13.429Z,67.04
2022-10-18T08:55:46.203Z,66.03
2022-10-18T08:58:48.215Z,63.96
2022-10-18T09:02:31.561Z,65.40
2022-10-18T09:05:46.504Z,64.12
2022-10-18T09:09:21.075Z,62.48
2022-10-18T09:12:36.869Z,63.81
2022-10-18T09:15:41.429Z,64.20
2022-10-18T09:18:57.838Z,62.91
2022-10-18T09:22:12.220Z,63.51
2022-10-18T09:25:34.059Z,62.67
2022-10-18T09:28:52.011Z,60.89
2022-10-18T09:32:12.391Z,61.15
2022-10-18T09:35:18.968Z,61.49
2022-10-18T09:38:28.843Z,59.95
2022-10-18T09:41:43.729Z,58.55
2022-10-18T09:44:52.349Z,57.86
2022-10-18T09:48:03.717Z,55.47
2022-10-18T09:51:15.321Z,59.19
2022-10-18T09:55:00.453Z,58.10
2022-10-18T09:58:03.606Z,58.08
2022-10-18T10:01:06.623Z,58.03
2022-10-18T10:04:08.562Z,57.43
2022-10-18T10:07:24.203Z,57.27
2022-10-18T10:10:29.531Z,57.13
2022-10-18T10:13:32.607Z,58.20
2022-10-18T10:16:43.756Z,56.17
2022-10-18T10:20:22.064Z,55.46
2022-10-18T10:23:26.707Z,57.76
2022-10-18T10:26:31.516Z,56.34
2022-10-18T10:29:46.131Z,56.58
2022-10-18T10:32:51.468Z,57.00
2022-10-18T10:35:59.464Z,56.81
2022-10-18T10:39:08.021Z,56.46
2022-10-18T10:42:13.594Z,55.46
2022-10-18T10:45:15.880Z,55.17
2022-10-18T10:48:20.738Z,54.64
2022-10-18T10:51:40.305Z,54.79
2022-10-18T10:54:48.989Z,55.46
2022-10-18T10:57:55.820Z,51.46
2022-10-18T11:00:58.154Z,56.63
2022-10-18T11:04:26.406Z,51.79
2022-10-18T11:07:34.271Z,54.80
2022-10-18T11:10:42.802Z,53.67
2022-10-18T11:14:07.407Z,54.46
2022-10-18T11:17:27.853Z,54.03
2022-10-18T11:20:41.312Z,52.92
2022-10-18T11:23:44.228Z,52.94
2022-10-18T11:26:53.729Z,54.76
2022-10-18T11:30:25.185Z,53.84
2022-10-18T11:33:56.281Z,53.50
2022-10-18T11:37:29.122Z,51.44
2022-10-18T11:40:45.754Z,52.65
2022-10-18T11:44:04.556Z,53.13
2022-10-18T11:47:32.899Z,48.87
2022-10-18T11:50:37.975Z,53.08
2022-10-18T11:54:18.098Z,49.86
2022-10-18T11:57:31.382Z,46.97
2022-10-18T12:00:41.378Z,51.38
2022-10-18T12:04:07.625Z,51.82
2022-10-18T12:07:12.596Z,51.20
2022-10-18T12:10:26.173Z,52.01
2022-10-18T12:13:50.011Z,50.98
2022-10-18T12:17:07.613Z,51.06
2022-10-18T12:20:20.744Z,51.69
2022-10-18T12:23:36.069Z,50.17
2022-10-18T12:26:38.797Z,51.90
2022-10-18T12:29:50.296Z,50.45
2022-10-18T12:33:09.975Z,51.76
2022-10-18T12:36:35.517Z,48.56
2022-10-18T12:40:12.498Z,51.96
2022-10-18T12:43:27.414Z,50.65
2022-10-18T12:46:48.848Z,49.64
2022-10-18T12:50:03.369Z,49.51
2022-10-18T12:53:25.284Z,50.71
2022-10-18T12:56:30.769Z,50.55
2022-10-18T12:59:33.144Z,50.35
2022-10-18T13:02:35.345Z,52.23
2022-10-18T13:05:55.024Z,50.32
2022-10-18T13:09:17.433Z,50.11
2022-10-18T13:12:19.284Z,51.22
2022-10-18T13:16:18.905Z,49.32
2022-10-18T13:19:24.114Z,50.71
2022-10-18T13:22:31.961Z,51.50
2022-10-18T13:26:01.473Z,51.76
2022-10-18T13:29:06.673Z,49.70
2022-10-18T13:32:24.418Z,51.94
2022-10-18T13:35:38.497Z,51.60
2022-10-18T13:38:48.561Z,50.47
2022-10-18T13:41:55.110Z,50.56
2022-10-18T13:45:34.006Z,49.46
2022-10-18T13:48:38.850Z,51.26
2022-10-18T13:51:53.441Z,52.19
2022-10-18T13:55:23.331Z,49.67
2022-10-18T13:58:48.927Z,50.58
2022-10-18T14:02:36.456Z,49.19
2022-10-18T14:05:53.715Z,50.16
2022-10-18T14:09:06.215Z,50.12
2022-10-18T14:12:41.934Z,51.04
2022-10-18T14:15:44.659Z,52.96
2022-10-18T14:18:47.899Z,51.82
2022-10-18T14:21:56.574Z,51.54
2022-10-18T14:24:59.384Z,52.89
2022-10-18T14:28:19.867Z,51.38
2022-10-18T14:31:31.207Z,52.72
2022-10-18T14:34:33.184Z,54.04
2022-10-18T14:37:37.255Z,54.90
2022-10-18T14:40:40.824Z,55.55
2022-10-18T14:43:44.034Z,56.14
2022-10-18T14:46:51.912Z,56.28
2022-10-18T14:49:55.258Z,57.05
2022-10-18T14:52:57.601Z,57.57
2022-10-18T14:56:05.297Z,58.04
2022-10-18T14:59:18.423Z,57.55
2022-10-18T15:02:24.658Z,58.00
2022-10-18T15:05:27.857Z,57.23
2022-10-18T15:08:37.451Z,58.28
2022-10-18T15:11:41.522Z,59.57
2022-10-18T15:14:44.523Z,59.35
2022-10-18T15:17:47.188Z,59.56
2022-10-18T15:21:28.323Z,59.05
2022-10-18T15:24:30.146Z,60.21
2022-10-18T15:27:36.091Z,61.47
2022-10-18T15:30:43.101Z,61.89
2022-10-18T15:33:45.389Z,62.26
2022-10-18T15:36:48.599Z,61.75
2022-10-18T15:40:22.578Z,61.65
2022-10-18T15:43:24.664Z,62.45
2022-10-18T15:46:32.986Z,62.51
2022-10-18T15:49:57.970Z,62.35
2022-10-18T15:53:30.438Z,63.00
2022-10-18T15:56:34.891Z,63.49
2022-10-18T15:59:50.261Z,63.94
2022-10-18T16:02:52.774Z,63.84
2022-10-18T16:06:00.724Z,63.87
2022-10-18T16:09:03.018Z,64.27
2022-10-18T16:12:05.841Z,64.23
2022-10-18T16:15:08.760Z,65.04
2022-10-18T16:18:16.330Z,65.54
2022-10-18T16:21:21.694Z,65.02
2022-10-18T16:24:23.952Z,65.06
2022-10-18T16:27:27.045Z,64.81
2022-10-18T16:30:31.759Z,65.21
2022-10-18T16:33:34.152Z,65.41
2022-10-18T16:36:36.389Z,65.77
2022-10-18T16:39:39.120Z,66.18
2022-10-18T16:42:41.227Z,66.42
2022-10-18T16:45:44.131Z,66.60
2022-10-18T16:48:47.193Z,66.66
2022-10-18T16:51:50.408Z,66.03
2022-10-18T16:54:53.174Z,65.45
2022-10-18T16:57:55.725Z,67.07
2022-10-18T17:00:58.701Z,67.17
2022-10-18T17:04:01.687Z,67.00
2022-10-18T17:07:04.920Z,67.17
2022-10-18T17:10:08.041Z,66.70
2022-10-18T17:13:10.707Z,66.99
2022-10-18T17:16:30.326Z,66.42
2022-10-18T17:19:40.970Z,66.65
2022-10-18T17:22:44.343Z,66.77
2022-10-18T17:26:04.679Z,68.01
2022-10-18T17:29:11.380Z,68.72
2022-10-18T17:32:16.097Z,68.94
2022-10-18T17:35:19.568Z,68.59
2022-10-18T17:38:23.250Z,69.24
2022-10-18T17:41:29.970Z,69.30
2022-10-18T17:44:34.512Z,69.29
2022-10-18T17:47:38.903Z,69.20
2022-10-18T17:50:43.226Z,68.63
2022-10-18T17:53:50.801Z,68.30
2022-10-18T17:56:53.830Z,68.89
2022-10-18T17:59:58.815Z,68.24
2022-10-18T18:03:01.755Z,68.49
2022-10-18T18:06:13.970Z,69.49
2022-10-18T18:09:17.206Z,69.74
2022-10-18T18:12:21.889Z,69.84
2022-10-18T18:15:24.739Z,70.79
2022-10-18T18:18:29.240Z,70.68
2022-10-18T18:21:32.421Z,70.50
2022-10-18T18:24:35.885Z,70.65
2022-10-18T18:27:39.557Z,70.62
2022-10-18T18:30:41.890Z,70.53
2022-10-18T18:33:44.887Z,70.32
2022-10-18T18:36:48.533Z,69.55
2022-10-18T18:39:51.098Z,69.13
2022-10-18T18:43:07.346Z,69.45
2022-10-18T18:46:15.845Z,69.39
2022-10-18T18:49:18.463Z,70.09
2022-10-18T18:52:21.078Z,70.68
2022-10-18T18:55:23.043Z,70.75
2022-10-18T18:58:29.029Z,70.39
2022-10-18T19:01:40.898Z,72.06
2022-10-18T19:04:44.427Z,71.06
2022-10-18T19:07:48.486Z,70.31
2022-10-18T19:10:51.231Z,71.20
2022-10-18T19:13:54.666Z,70.65
2022-10-18T19:17:02.949Z,70.55
2022-10-18T19:20:08.114Z,71.54
2022-10-18T19:23:10.556Z,71.36
2022-10-18T19:26:14.548Z,71.17
2022-10-18T19:29:21.092Z,71.16
2022-10-18T19:32:23.392Z,71.80
2022-10-18T19:35:25.805Z,70.86
2022-10-18T19:38:28.206Z,71.04
2022-10-18T19:41:30.401Z,72.09
2022-10-18T19:44:34.099Z,72.35
2022-10-18T19:47:38.547Z,72.07
2022-10-18T19:50:40.723Z,71.56
2022-10-18T19:53:42.989Z,71.87
2022-10-18T19:56:45.075Z,71.33
2022-10-18T19:59:47.380Z,71.57
2022-10-18T20:02:49.530Z,71.80
2022-10-18T20:06:00.168Z,72.33
2022-10-18T20:09:02.463Z,74.28
2022-10-18T20:12:07.678Z,72.66
2022-10-18T20:15:10.354Z,72.91
2022-10-18T20:18:12.626Z,72.63
2022-10-18T20:21:16.975Z,72.04
2022-10-18T20:24:19.066Z,72.98
2022-10-18T20:27:21.097Z,71.69
2022-10-18T20:30:23.221Z,72.67
2022-10-18T20:33:25.294Z,72.80
2022-10-18T20:36:28.571Z,72.68
2022-10-18T20:39:30.997Z,74.30
2022-10-18T20:42:33.030Z,74.37
2022-10-18T20:45:34.878Z,73.08
2022-10-18T20:48:37.258Z,72.50
2022-10-18T20:51:39.198Z,72.17
2022-10-18T20:54:41.423Z,71.10
2022-10-18T20:57:43.749Z,71.13
2022-10-18T21:00:46.210Z,70.65
2022-10-18T21:03:49.617Z,70.58
2022-10-18T21:06:51.500Z,71.14
2022-10-18T21:09:54.036Z,69.59
2022-10-18T21:12:56.033Z,69.53
2022-10-18T21:15:58.818Z,69.46
2022-10-18T21:19:19.387Z,70.52
2022-10-18T21:22:21.301Z,69.88
2022-10-18T21:25:24.621Z,71.57
2022-10-18T21:28:29.758Z,73.12
2022-10-18T21:31:37.213Z,73.00
2022-10-18T21:34:39.089Z,72.66
2022-10-18T21:37:41.153Z,72.88
2022-10-18T21:40:44.723Z,72.02
2022-10-18T21:43:49.462Z,72.95
2022-10-18T21:46:51.396Z,75.42
2022-10-18T21:49:53.438Z,77.17
2022-10-18T21:52:55.873Z,81.55
2022-10-18T21:56:10.353Z,83.15
2022-10-18T21:59:13.278Z,80.43
2022-10-18T22:02:15.268Z,80.43
2022-10-18T22:05:17.424Z,79.98
2022-10-18T22:08:19.468Z,81.82
2022-10-18T22:11:31.434Z,81.63
2022-10-18T22:14:33.397Z,82.44
2022-10-18T22:17:35.539Z,81.34
2022-10-18T22:20:37.868Z,83.17
2022-10-18T22:23:48.332Z,85.76
2022-10-18T22:26:51.228Z,85.09
2022-10-18T22:29:53.649Z,85.26
2022-10-18T22:32:55.558Z,86.51
2022-10-18T22:35:57.312Z,85.43
2022-10-18T22:38:59.521Z,91.54
2022-10-18T22:42:01.484Z,91.32
2022-10-18T22:45:03.415Z,89.07
2022-10-18T22:48:05.754Z,91.45
2022-10-18T22:51:08.198Z,91.36
2022-10-18T22:54:10.106Z,93.33
2022-10-18T22:57:11.919Z,93.43
2022-10-18T23:00:14.218Z,93.07
2022-10-18T23:03:17.147Z,94.59
2022-10-18T23:06:21.845Z,94.93
2022-10-18T23:09:23.960Z,95.26
2022-10-18T23:12:25.730Z,96.13
2022-10-18T23:15:27.690Z,96.85
2022-10-18T23:18:30.480Z,98.14
2022-10-18T23:21:34.404Z,97.60
2022-10-18T23:24:36.125Z,96.87
2022-10-18T23:27:37.855Z,94.72
2022-10-18T23:30:39.887Z,94.79
2022-10-18T23:33:41.839Z,93.47
2022-10-18T23:39:46.733Z,96.09
2022-10-18T23:42:48.794Z,96.95
2022-10-18T23:45:50.857Z,96.96
2022-10-18T23:48:53.099Z,97.60
2022-10-18T23:51:54.863Z,97.16
2022-10-18T23:54:56.741Z,95.72
2022-10-18T23:57:58.847Z,94.36
